sensor_id;sensor_type;location;lat;lon;timestamp;P1;durP1;ratioP1;P2;durP2;ratioP2
3922;SDS011;1976;51.694;6.256;2023-11-18T00:00:25;26.30;;;13.67;;
3922;SDS011;1976;51.694;6.256;2023-11-18T00:02:51;21.40;;;10.87;;
3922;SDS011;1976;51.694;6.256;2023-11-18T00:05:16;31.10;;;13.13;;
3922;SDS011;1976;51.694;6.256;2023-11-18T00:07:42;26.67;;;14.77;;
3922;SDS011;1976;51.694;6.256;2023-11-18T00:10:08;24.70;;;13.27;;
3922;SDS011;1976;51.694;6.256;2023-11-18T00:12:35;30.80;;;15.13;;
3922;SDS011;1976;51.694;6.256;2023-11-18T00:15:04;35.80;;;15.20;;
3922;SDS011;1976;51.694;6.256;2023-11-18T00:17:33;33.20;;;16.20;;
3922;SDS011;1976;51.694;6.256;2023-11-18T00:19:59;46.27;;;16.20;;
3922;SDS011;1976;51.694;6.256;2023-11-18T00:22:25;37.17;;;14.60;;
3922;SDS011;1976;51.694;6.256;2023-11-18T00:24:51;42.57;;;17.93;;
3922;SDS011;1976;51.694;6.256;2023-11-18T00:27:17;35.37;;;14.63;;
3922;SDS011;1976;51.694;6.256;2023-11-18T00:29:43;29.87;;;15.73;;
3922;SDS011;1976;51.694;6.256;2023-11-18T00:32:11;43.93;;;14.90;;
3922;SDS011;1976;51.694;6.256;2023-11-18T00:34:37;31.53;;;14.77;;
3922;SDS011;1976;51.694;6.256;2023-11-18T00:37:02;37.30;;;15.13;;
3922;SDS011;1976;51.694;6.256;2023-11-18T00:39:28;39.40;;;17.47;;
3922;SDS011;1976;51.694;6.256;2023-11-18T00:41:54;29.33;;;15.27;;
3922;SDS011;1976;51.694;6.256;2023-11-18T00:44:21;31.97;;;16.63;;
3922;SDS011;1976;51.694;6.256;2023-11-18T00:46:46;26.33;;;13.67;;
3922;SDS011;1976;51.694;6.256;2023-11-18T00:49:12;30.87;;;13.40;;
3922;SDS011;1976;51.694;6.256;2023-11-18T00:51:38;33.10;;;14.90;;
3922;SDS011;1976;51.694;6.256;2023-11-18T00:54:04;32.67;;;16.13;;
3922;SDS011;1976;51.694;6.256;2023-11-18T00:56:31;32.43;;;15.70;;
3922;SDS011;1976;51.694;6.256;2023-11-18T00:58:57;36.33;;;17.43;;
3922;SDS011;1976;51.694;6.256;2023-11-18T01:01:22;31.63;;;17.03;;
3922;SDS011;1976;51.694;6.256;2023-11-18T01:03:48;29.57;;;14.80;;
3922;SDS011;1976;51.694;6.256;2023-11-18T01:06:14;30.93;;;13.83;;
3922;SDS011;1976;51.694;6.256;2023-11-18T01:08:45;36.30;;;15.13;;
3922;SDS011;1976;51.694;6.256;2023-11-18T01:11:18;32.27;;;15.63;;
3922;SDS011;1976;51.694;6.256;2023-11-18T01:13:46;27.30;;;13.00;;
3922;SDS011;1976;51.694;6.256;2023-11-18T01:16:15;30.63;;;13.53;;
3922;SDS011;1976;51.694;6.256;2023-11-18T01:18:42;34.40;;;15.50;;
3922;SDS011;1976;51.694;6.256;2023-11-18T01:21:08;35.63;;;15.63;;
3922;SDS011;1976;51.694;6.256;2023-11-18T01:23:38;33.73;;;16.20;;
3922;SDS011;1976;51.694;6.256;2023-11-18T01:26:08;41.13;;;16.47;;
3922;SDS011;1976;51.694;6.256;2023-11-18T01:28:34;41.90;;;14.37;;
3922;SDS011;1976;51.694;6.256;2023-11-18T01:31:07;35.07;;;16.07;;
3922;SDS011;1976;51.694;6.256;2023-11-18T01:33:35;29.10;;;14.50;;
3922;SDS011;1976;51.694;6.256;2023-11-18T01:36:08;31.30;;;13.60;;
3922;SDS011;1976;51.694;6.256;2023-11-18T01:38:38;31.67;;;13.30;;
3922;SDS011;1976;51.694;6.256;2023-11-18T01:41:07;34.33;;;14.83;;
3922;SDS011;1976;51.694;6.256;2023-11-18T01:43:34;26.77;;;14.30;;
3922;SDS011;1976;51.694;6.256;2023-11-18T01:46:03;31.73;;;14.10;;
3922;SDS011;1976;51.694;6.256;2023-11-18T01:48:35;32.07;;;13.97;;
3922;SDS011;1976;51.694;6.256;2023-11-18T01:51:03;39.27;;;15.03;;
3922;SDS011;1976;51.694;6.256;2023-11-18T01:53:31;33.23;;;15.23;;
3922;SDS011;1976;51.694;6.256;2023-11-18T01:56:00;37.23;;;13.57;;
3922;SDS011;1976;51.694;6.256;2023-11-18T01:58:28;34.40;;;16.03;;
3922;SDS011;1976;51.694;6.256;2023-11-18T02:00:56;34.47;;;15.40;;
3922;SDS011;1976;51.694;6.256;2023-11-18T02:03:23;46.00;;;16.50;;
3922;SDS011;1976;51.694;6.256;2023-11-18T02:05:51;32.77;;;16.20;;
3922;SDS011;1976;51.694;6.256;2023-11-18T02:08:17;30.83;;;14.73;;
3922;SDS011;1976;51.694;6.256;2023-11-18T02:13:27;19.27;;;11.50;;
3922;SDS011;1976;51.694;6.256;2023-11-18T02:15:58;30.17;;;14.70;;
3922;SDS011;1976;51.694;6.256;2023-11-18T02:18:25;28.60;;;12.37;;
3922;SDS011;1976;51.694;6.256;2023-11-18T02:20:53;37.00;;;13.70;;
3922;SDS011;1976;51.694;6.256;2023-11-18T02:23:23;31.63;;;12.43;;
3922;SDS011;1976;51.694;6.256;2023-11-18T02:25:50;17.90;;;9.57;;
3922;SDS011;1976;51.694;6.256;2023-11-18T02:28:16;27.53;;;12.80;;
3922;SDS011;1976;51.694;6.256;2023-11-18T02:30:42;25.10;;;8.30;;
3922;SDS011;1976;51.694;6.256;2023-11-18T02:33:18;26.00;;;13.80;;
3922;SDS011;1976;51.694;6.256;2023-11-18T02:35:54;29.13;;;12.93;;
3922;SDS011;1976;51.694;6.256;2023-11-18T02:38:44;24.37;;;11.47;;
3922;SDS011;1976;51.694;6.256;2023-11-18T02:41:15;17.17;;;6.80;;
3922;SDS011;1976;51.694;6.256;2023-11-18T02:43:43;28.47;;;13.13;;
3922;SDS011;1976;51.694;6.256;2023-11-18T02:46:10;32.83;;;12.73;;
3922;SDS011;1976;51.694;6.256;2023-11-18T02:48:39;28.73;;;10.60;;
3922;SDS011;1976;51.694;6.256;2023-11-18T02:51:06;31.30;;;13.60;;
3922;SDS011;1976;51.694;6.256;2023-11-18T02:53:33;25.77;;;11.20;;
3922;SDS011;1976;51.694;6.256;2023-11-18T02:55:59;26.10;;;10.10;;
3922;SDS011;1976;51.694;6.256;2023-11-18T02:58:30;27.53;;;13.47;;
3922;SDS011;1976;51.694;6.256;2023-11-18T03:00:56;16.07;;;6.80;;
3922;SDS011;1976;51.694;6.256;2023-11-18T03:03:24;23.63;;;13.37;;
3922;SDS011;1976;51.694;6.256;2023-11-18T03:05:50;25.73;;;10.30;;
3922;SDS011;1976;51.694;6.256;2023-11-18T03:08:16;25.93;;;11.60;;
3922;SDS011;1976;51.694;6.256;2023-11-18T03:10:41;12.63;;;7.77;;
3922;SDS011;1976;51.694;6.256;2023-11-18T03:13:09;25.20;;;10.13;;
3922;SDS011;1976;51.694;6.256;2023-11-18T03:15:35;19.50;;;11.47;;
3922;SDS011;1976;51.694;6.256;2023-11-18T03:18:01;19.73;;;9.47;;
3922;SDS011;1976;51.694;6.256;2023-11-18T03:20:27;26.67;;;11.27;;
3922;SDS011;1976;51.694;6.256;2023-11-18T03:22:54;11.43;;;6.57;;
3922;SDS011;1976;51.694;6.256;2023-11-18T03:25:19;31.40;;;12.37;;
3922;SDS011;1976;51.694;6.256;2023-11-18T03:27:46;7.70;;;6.20;;
3922;SDS011;1976;51.694;6.256;2023-11-18T03:30:12;20.13;;;10.07;;
3922;SDS011;1976;51.694;6.256;2023-11-18T03:32:38;11.90;;;6.60;;
3922;SDS011;1976;51.694;6.256;2023-11-18T03:35:05;22.00;;;8.30;;
3922;SDS011;1976;51.694;6.256;2023-11-18T03:37:33;23.07;;;12.13;;
3922;SDS011;1976;51.694;6.256;2023-11-18T03:39:59;28.73;;;13.17;;
3922;SDS011;1976;51.694;6.256;2023-11-18T03:42:25;25.57;;;13.23;;
3922;SDS011;1976;51.694;6.256;2023-11-18T03:44:54;21.20;;;10.10;;
3922;SDS011;1976;51.694;6.256;2023-11-18T03:47:19;23.60;;;11.20;;
3922;SDS011;1976;51.694;6.256;2023-11-18T03:49:48;25.47;;;11.90;;
3922;SDS011;1976;51.694;6.256;2023-11-18T03:52:15;7.93;;;6.10;;
3922;SDS011;1976;51.694;6.256;2023-11-18T03:54:40;23.07;;;10.47;;
3922;SDS011;1976;51.694;6.256;2023-11-18T03:57:06;15.47;;;9.87;;
3922;SDS011;1976;51.694;6.256;2023-11-18T03:59:32;21.07;;;9.93;;
3922;SDS011;1976;51.694;6.256;2023-11-18T04:01:58;31.23;;;12.30;;
3922;SDS011;1976;51.694;6.256;2023-11-18T04:04:23;23.23;;;11.53;;
3922;SDS011;1976;51.694;6.256;2023-11-18T04:06:49;19.17;;;11.10;;
3922;SDS011;1976;51.694;6.256;2023-11-18T04:09:15;27.13;;;12.60;;
3922;SDS011;1976;51.694;6.256;2023-11-18T04:11:41;23.90;;;12.10;;
3922;SDS011;1976;51.694;6.256;2023-11-18T04:14:09;24.50;;;12.73;;
3922;SDS011;1976;51.694;6.256;2023-11-18T04:16:35;30.13;;;14.93;;
3922;SDS011;1976;51.694;6.256;2023-11-18T04:19:03;26.00;;;12.77;;
3922;SDS011;1976;51.694;6.256;2023-11-18T04:21:28;24.20;;;12.70;;
3922;SDS011;1976;51.694;6.256;2023-11-18T04:23:54;35.80;;;15.53;;
3922;SDS011;1976;51.694;6.256;2023-11-18T04:26:20;29.27;;;14.30;;
3922;SDS011;1976;51.694;6.256;2023-11-18T04:28:45;29.67;;;13.83;;
3922;SDS011;1976;51.694;6.256;2023-11-18T04:31:11;19.87;;;10.23;;
3922;SDS011;1976;51.694;6.256;2023-11-18T04:33:37;17.37;;;10.33;;
3922;SDS011;1976;51.694;6.256;2023-11-18T04:36:05;19.60;;;11.27;;
3922;SDS011;1976;51.694;6.256;2023-11-18T04:38:34;13.50;;;7.77;;
3922;SDS011;1976;51.694;6.256;2023-11-18T04:41:00;24.90;;;12.63;;
3922;SDS011;1976;51.694;6.256;2023-11-18T04:43:28;19.90;;;10.47;;
3922;SDS011;1976;51.694;6.256;2023-11-18T04:45:55;12.10;;;6.07;;
3922;SDS011;1976;51.694;6.256;2023-11-18T04:48:20;14.00;;;7.80;;
3922;SDS011;1976;51.694;6.256;2023-11-18T04:50:46;16.00;;;7.70;;
3922;SDS011;1976;51.694;6.256;2023-11-18T04:53:12;8.57;;;6.30;;
3922;SDS011;1976;51.694;6.256;2023-11-18T04:55:38;14.30;;;8.70;;
3922;SDS011;1976;51.694;6.256;2023-11-18T04:58:04;14.90;;;6.03;;
3922;SDS011;1976;51.694;6.256;2023-11-18T05:00:31;8.00;;;5.73;;
3922;SDS011;1976;51.694;6.256;2023-11-18T05:02:57;23.77;;;8.57;;
3922;SDS011;1976;51.694;6.256;2023-11-18T05:05:23;11.73;;;7.03;;
3922;SDS011;1976;51.694;6.256;2023-11-18T05:07:49;11.37;;;5.57;;
3922;SDS011;1976;51.694;6.256;2023-11-18T05:10:14;23.63;;;7.60;;
3922;SDS011;1976;51.694;6.256;2023-11-18T05:12:40;14.83;;;5.43;;
3922;SDS011;1976;51.694;6.256;2023-11-18T05:15:08;28.70;;;9.97;;
3922;SDS011;1976;51.694;6.256;2023-11-18T05:17:35;16.73;;;8.63;;
3922;SDS011;1976;51.694;6.256;2023-11-18T05:20:04;35.17;;;15.50;;
3922;SDS011;1976;51.694;6.256;2023-11-18T05:22:34;16.13;;;9.17;;
3922;SDS011;1976;51.694;6.256;2023-11-18T05:25:01;22.23;;;7.17;;
3922;SDS011;1976;51.694;6.256;2023-11-18T05:27:29;17.00;;;9.73;;
3922;SDS011;1976;51.694;6.256;2023-11-18T05:29:56;25.77;;;11.00;;
3922;SDS011;1976;51.694;6.256;2023-11-18T05:32:26;17.73;;;10.30;;
3922;SDS011;1976;51.694;6.256;2023-11-18T05:34:52;12.50;;;7.20;;
3922;SDS011;1976;51.694;6.256;2023-11-18T05:37:20;12.27;;;7.67;;
3922;SDS011;1976;51.694;6.256;2023-11-18T05:39:46;19.87;;;8.57;;
3922;SDS011;1976;51.694;6.256;2023-11-18T05:42:14;23.13;;;11.63;;
3922;SDS011;1976;51.694;6.256;2023-11-18T05:44:40;18.17;;;7.67;;
3922;SDS011;1976;51.694;6.256;2023-11-18T05:47:06;10.83;;;6.40;;
3922;SDS011;1976;51.694;6.256;2023-11-18T05:49:32;19.70;;;10.80;;
3922;SDS011;1976;51.694;6.256;2023-11-18T05:51:59;17.90;;;9.67;;
3922;SDS011;1976;51.694;6.256;2023-11-18T05:54:24;15.93;;;8.83;;
3922;SDS011;1976;51.694;6.256;2023-11-18T05:56:50;7.00;;;4.97;;
3922;SDS011;1976;51.694;6.256;2023-11-18T05:59:16;17.47;;;8.30;;
3922;SDS011;1976;51.694;6.256;2023-11-18T06:01:42;36.10;;;11.37;;
3922;SDS011;1976;51.694;6.256;2023-11-18T06:04:08;13.70;;;7.97;;
3922;SDS011;1976;51.694;6.256;2023-11-18T06:06:33;23.83;;;10.30;;
3922;SDS011;1976;51.694;6.256;2023-11-18T06:08:59;29.00;;;11.37;;
3922;SDS011;1976;51.694;6.256;2023-11-18T06:11:30;27.13;;;10.97;;
3922;SDS011;1976;51.694;6.256;2023-11-18T06:13:56;27.33;;;12.00;;
3922;SDS011;1976;51.694;6.256;2023-11-18T06:16:23;49.23;;;17.90;;
3922;SDS011;1976;51.694;6.256;2023-11-18T06:18:52;23.27;;;10.20;;
3922;SDS011;1976;51.694;6.256;2023-11-18T06:21:21;13.80;;;8.03;;
3922;SDS011;1976;51.694;6.256;2023-11-18T06:23:54;25.97;;;9.53;;
3922;SDS011;1976;51.694;6.256;2023-11-18T06:26:21;19.17;;;9.53;;
3922;SDS011;1976;51.694;6.256;2023-11-18T06:28:47;14.40;;;7.67;;
3922;SDS011;1976;51.694;6.256;2023-11-18T06:31:16;28.37;;;14.67;;
3922;SDS011;1976;51.694;6.256;2023-11-18T06:33:42;24.83;;;9.13;;
3922;SDS011;1976;51.694;6.256;2023-11-18T06:36:09;23.13;;;9.97;;
3922;SDS011;1976;51.694;6.256;2023-11-18T06:38:51;14.43;;;7.73;;
3922;SDS011;1976;51.694;6.256;2023-11-18T06:41:21;25.27;;;11.20;;
3922;SDS011;1976;51.694;6.256;2023-11-18T06:44:01;19.57;;;9.67;;
3922;SDS011;1976;51.694;6.256;2023-11-18T06:46:39;19.33;;;11.50;;
3922;SDS011;1976;51.694;6.256;2023-11-18T06:49:05;21.83;;;9.50;;
3922;SDS011;1976;51.694;6.256;2023-11-18T06:51:32;22.57;;;11.60;;
3922;SDS011;1976;51.694;6.256;2023-11-18T06:54:03;22.63;;;11.00;;
3922;SDS011;1976;51.694;6.256;2023-11-18T06:56:39;33.93;;;13.50;;
3922;SDS011;1976;51.694;6.256;2023-11-18T06:59:09;11.50;;;5.30;;
3922;SDS011;1976;51.694;6.256;2023-11-18T07:01:37;27.10;;;10.03;;
3922;SDS011;1976;51.694;6.256;2023-11-18T07:04:05;19.57;;;9.27;;
3922;SDS011;1976;51.694;6.256;2023-11-18T07:06:34;42.40;;;17.10;;
3922;SDS011;1976;51.694;6.256;2023-11-18T07:09:03;37.97;;;16.07;;
3922;SDS011;1976;51.694;6.256;2023-11-18T07:11:37;37.07;;;17.13;;
3922;SDS011;1976;51.694;6.256;2023-11-18T07:14:03;29.90;;;10.80;;
3922;SDS011;1976;51.694;6.256;2023-11-18T07:16:29;48.87;;;19.37;;
3922;SDS011;1976;51.694;6.256;2023-11-18T07:18:54;31.90;;;14.40;;
3922;SDS011;1976;51.694;6.256;2023-11-18T07:21:20;36.03;;;15.13;;
3922;SDS011;1976;51.694;6.256;2023-11-18T07:23:46;30.67;;;14.30;;
3922;SDS011;1976;51.694;6.256;2023-11-18T07:26:11;45.80;;;18.77;;
3922;SDS011;1976;51.694;6.256;2023-11-18T07:28:39;42.57;;;16.20;;
3922;SDS011;1976;51.694;6.256;2023-11-18T07:31:05;30.53;;;13.63;;
3922;SDS011;1976;51.694;6.256;2023-11-18T07:33:31;20.30;;;9.57;;
3922;SDS011;1976;51.694;6.256;2023-11-18T07:35:57;34.23;;;15.67;;
3922;SDS011;1976;51.694;6.256;2023-11-18T07:38:24;38.70;;;16.20;;
3922;SDS011;1976;51.694;6.256;2023-11-18T07:40:51;30.53;;;14.30;;
3922;SDS011;1976;51.694;6.256;2023-11-18T07:43:21;29.07;;;13.10;;
3922;SDS011;1976;51.694;6.256;2023-11-18T07:45:48;25.67;;;10.30;;
3922;SDS011;1976;51.694;6.256;2023-11-18T07:48:18;35.50;;;12.90;;
3922;SDS011;1976;51.694;6.256;2023-11-18T07:50:45;20.87;;;11.43;;
3922;SDS011;1976;51.694;6.256;2023-11-18T07:53:14;30.70;;;14.60;;
3922;SDS011;1976;51.694;6.256;2023-11-18T07:55:40;19.83;;;9.27;;
3922;SDS011;1976;51.694;6.256;2023-11-18T07:58:09;10.20;;;6.17;;
3922;SDS011;1976;51.694;6.256;2023-11-18T08:00:39;23.60;;;9.90;;
3922;SDS011;1976;51.694;6.256;2023-11-18T08:03:07;20.30;;;7.30;;
3922;SDS011;1976;51.694;6.256;2023-11-18T08:05:40;20.83;;;9.43;;
3922;SDS011;1976;51.694;6.256;2023-11-18T08:08:06;23.67;;;11.07;;
3922;SDS011;1976;51.694;6.256;2023-11-18T08:10:33;34.30;;;14.83;;
3922;SDS011;1976;51.694;6.256;2023-11-18T08:13:03;9.57;;;6.17;;
3922;SDS011;1976;51.694;6.256;2023-11-18T08:15:33;16.10;;;7.80;;
3922;SDS011;1976;51.694;6.256;2023-11-18T08:17:59;18.00;;;9.30;;
3922;SDS011;1976;51.694;6.256;2023-11-18T08:20:25;19.30;;;9.93;;
3922;SDS011;1976;51.694;6.256;2023-11-18T08:22:51;22.93;;;11.47;;
3922;SDS011;1976;51.694;6.256;2023-11-18T08:25:16;23.57;;;11.97;;
3922;SDS011;1976;51.694;6.256;2023-11-18T08:27:43;17.23;;;8.30;;
3922;SDS011;1976;51.694;6.256;2023-11-18T08:30:11;21.97;;;10.30;;
3922;SDS011;1976;51.694;6.256;2023-11-18T08:32:38;19.97;;;9.77;;
3922;SDS011;1976;51.694;6.256;2023-11-18T08:35:05;17.00;;;7.23;;
3922;SDS011;1976;51.694;6.256;2023-11-18T08:37:32;14.33;;;7.30;;
3922;SDS011;1976;51.694;6.256;2023-11-18T08:40:00;31.67;;;14.90;;
3922;SDS011;1976;51.694;6.256;2023-11-18T08:42:28;22.70;;;11.57;;
3922;SDS011;1976;51.694;6.256;2023-11-18T08:44:54;19.77;;;6.47;;
3922;SDS011;1976;51.694;6.256;2023-11-18T08:47:20;16.03;;;7.80;;
3922;SDS011;1976;51.694;6.256;2023-11-18T08:49:46;15.43;;;7.60;;
3922;SDS011;1976;51.694;6.256;2023-11-18T08:52:12;19.23;;;9.30;;
3922;SDS011;1976;51.694;6.256;2023-11-18T08:54:38;9.33;;;6.47;;
3922;SDS011;1976;51.694;6.256;2023-11-18T08:57:23;31.90;;;11.27;;
3922;SDS011;1976;51.694;6.256;2023-11-18T08:59:50;27.30;;;10.70;;
3922;SDS011;1976;51.694;6.256;2023-11-18T09:02:19;30.90;;;12.77;;
3922;SDS011;1976;51.694;6.256;2023-11-18T09:04:51;12.03;;;7.70;;
3922;SDS011;1976;51.694;6.256;2023-11-18T09:07:20;65.47;;;7.73;;
3922;SDS011;1976;51.694;6.256;2023-11-18T09:09:46;17.40;;;7.10;;
3922;SDS011;1976;51.694;6.256;2023-11-18T09:12:17;16.20;;;9.47;;
3922;SDS011;1976;51.694;6.256;2023-11-18T09:14:44;28.63;;;14.13;;
3922;SDS011;1976;51.694;6.256;2023-11-18T09:17:12;20.97;;;7.57;;
3922;SDS011;1976;51.694;6.256;2023-11-18T09:19:40;11.97;;;6.27;;
3922;SDS011;1976;51.694;6.256;2023-11-18T09:22:05;11.33;;;6.47;;
3922;SDS011;1976;51.694;6.256;2023-11-18T09:24:31;14.77;;;6.43;;
3922;SDS011;1976;51.694;6.256;2023-11-18T09:26:58;22.20;;;8.87;;
3922;SDS011;1976;51.694;6.256;2023-11-18T09:29:24;13.70;;;7.07;;
3922;SDS011;1976;51.694;6.256;2023-11-18T09:31:50;16.43;;;8.97;;
3922;SDS011;1976;51.694;6.256;2023-11-18T09:34:17;32.83;;;10.07;;
3922;SDS011;1976;51.694;6.256;2023-11-18T09:36:51;15.50;;;8.03;;
3922;SDS011;1976;51.694;6.256;2023-11-18T09:39:18;12.47;;;7.47;;
3922;SDS011;1976;51.694;6.256;2023-11-18T09:41:57;14.53;;;6.70;;
3922;SDS011;1976;51.694;6.256;2023-11-18T09:44:23;16.40;;;6.47;;
3922;SDS011;1976;51.694;6.256;2023-11-18T09:46:52;11.57;;;5.47;;
3922;SDS011;1976;51.694;6.256;2023-11-18T09:49:37;12.07;;;7.00;;
3922;SDS011;1976;51.694;6.256;2023-11-18T09:52:06;13.63;;;7.27;;
3922;SDS011;1976;51.694;6.256;2023-11-18T09:57:40;4.00;;;3.10;;
3922;SDS011;1976;51.694;6.256;2023-11-18T10:00:12;11.10;;;6.60;;
3922;SDS011;1976;51.694;6.256;2023-11-18T10:02:57;11.90;;;6.20;;
3922;SDS011;1976;51.694;6.256;2023-11-18T10:05:26;9.60;;;4.53;;
3922;SDS011;1976;51.694;6.256;2023-11-18T10:07:52;9.33;;;5.60;;
3922;SDS011;1976;51.694;6.256;2023-11-18T10:10:19;9.33;;;6.00;;
3922;SDS011;1976;51.694;6.256;2023-11-18T10:12:50;7.93;;;5.97;;
3922;SDS011;1976;51.694;6.256;2023-11-18T10:15:23;13.90;;;8.73;;
3922;SDS011;1976;51.694;6.256;2023-11-18T10:17:50;13.97;;;6.97;;
3922;SDS011;1976;51.694;6.256;2023-11-18T10:20:44;9.57;;;5.93;;
3922;SDS011;1976;51.694;6.256;2023-11-18T10:23:11;16.80;;;8.97;;
3922;SDS011;1976;51.694;6.256;2023-11-18T10:25:47;15.97;;;7.27;;
3922;SDS011;1976;51.694;6.256;2023-11-18T10:28:35;8.53;;;5.80;;
3922;SDS011;1976;51.694;6.256;2023-11-18T10:31:03;8.03;;;5.70;;
3922;SDS011;1976;51.694;6.256;2023-11-18T10:35:57;8.17;;;5.07;;
3922;SDS011;1976;51.694;6.256;2023-11-18T10:38:23;18.07;;;7.70;;
3922;SDS011;1976;51.694;6.256;2023-11-18T10:40:55;12.07;;;4.70;;
3922;SDS011;1976;51.694;6.256;2023-11-18T10:43:22;9.97;;;6.30;;
3922;SDS011;1976;51.694;6.256;2023-11-18T10:45:52;5.43;;;4.30;;
3922;SDS011;1976;51.694;6.256;2023-11-18T10:48:37;8.70;;;4.80;;
3922;SDS011;1976;51.694;6.256;2023-11-18T10:51:06;2.50;;;2.30;;
3922;SDS011;1976;51.694;6.256;2023-11-18T10:53:36;8.60;;;4.50;;
3922;SDS011;1976;51.694;6.256;2023-11-18T10:56:06;4.57;;;3.47;;
3922;SDS011;1976;51.694;6.256;2023-11-18T10:58:42;6.00;;;2.80;;
3922;SDS011;1976;51.694;6.256;2023-11-18T11:01:10;8.70;;;6.20;;
3922;SDS011;1976;51.694;6.256;2023-11-18T11:03:52;10.97;;;6.77;;
3922;SDS011;1976;51.694;6.256;2023-11-18T11:06:21;7.70;;;4.70;;
3922;SDS011;1976;51.694;6.256;2023-11-18T11:12:10;11.00;;;4.97;;
3922;SDS011;1976;51.694;6.256;2023-11-18T11:14:54;9.97;;;6.27;;
3922;SDS011;1976;51.694;6.256;2023-11-18T11:17:25;15.80;;;5.93;;
3922;SDS011;1976;51.694;6.256;2023-11-18T11:22:56;10.50;;;3.93;;
3922;SDS011;1976;51.694;6.256;2023-11-18T11:28:10;5.20;;;4.33;;
3922;SDS011;1976;51.694;6.256;2023-11-18T11:30:58;11.63;;;6.67;;
3922;SDS011;1976;51.694;6.256;2023-11-18T11:36:25;5.90;;;5.13;;
3922;SDS011;1976;51.694;6.256;2023-11-18T11:39:06;7.33;;;5.33;;
3922;SDS011;1976;51.694;6.256;2023-11-18T11:42:01;5.00;;;3.97;;
3922;SDS011;1976;51.694;6.256;2023-11-18T11:44:27;10.70;;;6.53;;
3922;SDS011;1976;51.694;6.256;2023-11-18T11:46:56;5.70;;;4.20;;
3922;SDS011;1976;51.694;6.256;2023-11-18T11:49:25;10.17;;;6.87;;
3922;SDS011;1976;51.694;6.256;2023-11-18T11:52:01;5.43;;;4.87;;
3922;SDS011;1976;51.694;6.256;2023-11-18T11:54:37;5.23;;;3.67;;
3922;SDS011;1976;51.694;6.256;2023-11-18T11:57:09;5.40;;;4.57;;
3922;SDS011;1976;51.694;6.256;2023-11-18T12:02:20;0.60;;;0.60;;
3922;SDS011;1976;51.694;6.256;2023-11-18T12:04:57;0.60;;;0.60;;
3922;SDS011;1976;51.694;6.256;2023-11-18T12:07:26;0.60;;;0.60;;
3922;SDS011;1976;51.694;6.256;2023-11-18T12:09:59;0.70;;;0.70;;
3922;SDS011;1976;51.694;6.256;2023-11-18T12:12:26;0.60;;;0.60;;
3922;SDS011;1976;51.694;6.256;2023-11-18T12:17:23;0.70;;;0.70;;
3922;SDS011;1976;51.694;6.256;2023-11-18T12:19:50;0.70;;;0.70;;
3922;SDS011;1976;51.694;6.256;2023-11-18T12:22:23;0.70;;;0.70;;
3922;SDS011;1976;51.694;6.256;2023-11-18T12:27:41;0.80;;;0.80;;
3922;SDS011;1976;51.694;6.256;2023-11-18T12:35:29;0.60;;;0.60;;
3922;SDS011;1976;51.694;6.256;2023-11-18T12:41:34;0.70;;;0.70;;
3922;SDS011;1976;51.694;6.256;2023-11-18T12:46:52;0.90;;;0.80;;
3922;SDS011;1976;51.694;6.256;2023-11-18T12:49:20;0.60;;;0.60;;
3922;SDS011;1976;51.694;6.256;2023-11-18T12:51:48;0.60;;;0.60;;
3922;SDS011;1976;51.694;6.256;2023-11-18T12:54:16;0.60;;;0.60;;
3922;SDS011;1976;51.694;6.256;2023-11-18T12:56:43;0.60;;;0.60;;
3922;SDS011;1976;51.694;6.256;2023-11-18T12:59:13;0.60;;;0.60;;
3922;SDS011;1976;51.694;6.256;2023-11-18T13:01:49;0.60;;;0.60;;
3922;SDS011;1976;51.694;6.256;2023-11-18T13:04:29;0.60;;;0.60;;
3922;SDS011;1976;51.694;6.256;2023-11-18T13:07:05;0.70;;;0.70;;
3922;SDS011;1976;51.694;6.256;2023-11-18T13:09:33;0.60;;;0.60;;
3922;SDS011;1976;51.694;6.256;2023-11-18T13:12:02;0.70;;;0.70;;
3922;SDS011;1976;51.694;6.256;2023-11-18T13:14:34;0.60;;;0.60;;
3922;SDS011;1976;51.694;6.256;2023-11-18T13:17:05;3.23;;;2.63;;
3922;SDS011;1976;51.694;6.256;2023-11-18T13:19:34;0.70;;;0.70;;
3922;SDS011;1976;51.694;6.256;2023-11-18T13:22:10;0.60;;;0.60;;
3922;SDS011;1976;51.694;6.256;2023-11-18T13:24:37;0.70;;;0.70;;
3922;SDS011;1976;51.694;6.256;2023-11-18T13:27:10;0.80;;;0.80;;
3922;SDS011;1976;51.694;6.256;2023-11-18T13:29:39;0.60;;;0.60;;
3922;SDS011;1976;51.694;6.256;2023-11-18T13:32:10;0.60;;;0.60;;
3922;SDS011;1976;51.694;6.256;2023-11-18T13:34:37;0.60;;;0.60;;
3922;SDS011;1976;51.694;6.256;2023-11-18T13:37:08;0.70;;;0.70;;
3922;SDS011;1976;51.694;6.256;2023-11-18T13:39:35;0.90;;;0.90;;
3922;SDS011;1976;51.694;6.256;2023-11-18T13:42:19;0.60;;;0.60;;
3922;SDS011;1976;51.694;6.256;2023-11-18T13:44:45;0.67;;;0.67;;
3922;SDS011;1976;51.694;6.256;2023-11-18T13:47:11;0.60;;;0.60;;
3922;SDS011;1976;51.694;6.256;2023-11-18T13:49:37;0.60;;;0.60;;
3922;SDS011;1976;51.694;6.256;2023-11-18T13:52:05;0.60;;;0.60;;
3922;SDS011;1976;51.694;6.256;2023-11-18T13:54:36;0.70;;;0.70;;
3922;SDS011;1976;51.694;6.256;2023-11-18T13:57:05;0.60;;;0.60;;
3922;SDS011;1976;51.694;6.256;2023-11-18T13:59:31;0.60;;;0.60;;
3922;SDS011;1976;51.694;6.256;2023-11-18T14:01:58;0.60;;;0.60;;
3922;SDS011;1976;51.694;6.256;2023-11-18T14:04:27;0.70;;;0.70;;
3922;SDS011;1976;51.694;6.256;2023-11-18T14:06:57;0.60;;;0.60;;
3922;SDS011;1976;51.694;6.256;2023-11-18T14:09:24;0.70;;;0.70;;
3922;SDS011;1976;51.694;6.256;2023-11-18T14:11:51;0.60;;;0.60;;
3922;SDS011;1976;51.694;6.256;2023-11-18T14:14:19;0.60;;;0.60;;
3922;SDS011;1976;51.694;6.256;2023-11-18T14:16:45;0.70;;;0.70;;
3922;SDS011;1976;51.694;6.256;2023-11-18T14:19:11;0.70;;;0.70;;
3922;SDS011;1976;51.694;6.256;2023-11-18T14:21:37;0.60;;;0.60;;
3922;SDS011;1976;51.694;6.256;2023-11-18T14:24:09;0.67;;;0.67;;
3922;SDS011;1976;51.694;6.256;2023-11-18T14:26:36;1.33;;;1.23;;
3922;SDS011;1976;51.694;6.256;2023-11-18T14:29:05;0.60;;;0.60;;
3922;SDS011;1976;51.694;6.256;2023-11-18T14:31:31;0.60;;;0.60;;
3922;SDS011;1976;51.694;6.256;2023-11-18T14:33:57;0.67;;;0.67;;
3922;SDS011;1976;51.694;6.256;2023-11-18T14:36:25;0.83;;;0.83;;
3922;SDS011;1976;51.694;6.256;2023-11-18T14:38:51;0.70;;;0.70;;
3922;SDS011;1976;51.694;6.256;2023-11-18T14:41:17;2.00;;;1.90;;
3922;SDS011;1976;51.694;6.256;2023-11-18T14:43:45;0.60;;;0.60;;
3922;SDS011;1976;51.694;6.256;2023-11-18T14:46:11;0.60;;;0.60;;
3922;SDS011;1976;51.694;6.256;2023-11-18T14:48:38;0.60;;;0.60;;
3922;SDS011;1976;51.694;6.256;2023-11-18T14:51:04;0.67;;;0.67;;
3922;SDS011;1976;51.694;6.256;2023-11-18T14:53:30;0.60;;;0.60;;
3922;SDS011;1976;51.694;6.256;2023-11-18T14:55:56;0.60;;;0.60;;
3922;SDS011;1976;51.694;6.256;2023-11-18T14:58:22;0.70;;;0.70;;
3922;SDS011;1976;51.694;6.256;2023-11-18T15:00:48;0.60;;;0.60;;
3922;SDS011;1976;51.694;6.256;2023-11-18T15:03:14;0.60;;;0.60;;
3922;SDS011;1976;51.694;6.256;2023-11-18T15:05:41;3.13;;;2.23;;
3922;SDS011;1976;51.694;6.256;2023-11-18T15:08:09;0.60;;;0.60;;
3922;SDS011;1976;51.694;6.256;2023-11-18T15:10:34;0.70;;;0.70;;
3922;SDS011;1976;51.694;6.256;2023-11-18T15:13:02;0.60;;;0.60;;
3922;SDS011;1976;51.694;6.256;2023-11-18T15:15:29;0.70;;;0.70;;
3922;SDS011;1976;51.694;6.256;2023-11-18T15:17:59;0.60;;;0.60;;
3922;SDS011;1976;51.694;6.256;2023-11-18T15:20:38;0.60;;;0.60;;
3922;SDS011;1976;51.694;6.256;2023-11-18T15:23:08;0.60;;;0.60;;
3922;SDS011;1976;51.694;6.256;2023-11-18T15:25:34;0.60;;;0.60;;
3922;SDS011;1976;51.694;6.256;2023-11-18T15:28:00;0.70;;;0.70;;
3922;SDS011;1976;51.694;6.256;2023-11-18T15:30:25;0.60;;;0.60;;
3922;SDS011;1976;51.694;6.256;2023-11-18T15:32:52;0.70;;;0.70;;
3922;SDS011;1976;51.694;6.256;2023-11-18T15:35:18;0.70;;;0.70;;
3922;SDS011;1976;51.694;6.256;2023-11-18T15:37:46;0.60;;;0.60;;
3922;SDS011;1976;51.694;6.256;2023-11-18T15:40:15;0.70;;;0.70;;
3922;SDS011;1976;51.694;6.256;2023-11-18T15:42:45;0.90;;;0.90;;
3922;SDS011;1976;51.694;6.256;2023-11-18T15:45:18;0.60;;;0.60;;
3922;SDS011;1976;51.694;6.256;2023-11-18T15:47:45;0.60;;;0.60;;